Time;durP1;ratioP1;P1;durP2;ratioP2;P2;SDS_P1;SDS_P2;PMS_P1;PMS_P2;Temp;Humidity;BMP_temperature;BMP_pressure;BME280_temperature;BME280_humidity;BME280_pressure;Samples;Min_cycle;Max_cycle;Signal;HPM_P1;HPM_P2
2022/09/13 00:00:07;;;;;;;16.03;11.80;;;17.90;99.90;;;;;;5119221;27;20039;-76
2022/09/13 00:02:32;;;;;;;14.95;12.73;;;17.80;99.90;;;;;;5137448;27;20039;-76
2022/09/13 00:04:58;;;;;;;14.67;11.77;;;17.80;99.90;;;;;;5137418;27;20496;-76
2022/09/13 00:07:24;;;;;;;14.07;12.67;;;17.80;99.90;;;;;;5136596;27;20115;-76
2022/09/13 00:09:49;;;;;;;13.13;11.60;;;17.70;99.90;;;;;;5136168;27;20042;-76
2022/09/13 00:12:15;;;;;;;16.50;12.70;;;17.70;99.90;;;;;;5137315;27;20490;-77
2022/09/13 00:14:40;;;;;;;14.23;12.73;;;17.60;99.90;;;;;;5136913;27;20505;-77
2022/09/13 00:17:06;;;;;;;19.90;12.63;;;17.60;99.90;;;;;;5136918;27;20079;-76
2022/09/13 00:19:32;;;;;;;13.00;11.30;;;17.60;99.90;;;;;;5136880;27;20131;-77
2022/09/13 00:21:58;;;;;;;14.73;13.20;;;17.60;99.90;;;;;;5136928;27;20035;-76
2022/09/13 00:24:23;;;;;;;15.17;13.57;;;17.60;99.90;;;;;;5136767;27;20039;-77
2022/09/13 00:26:49;;;;;;;16.00;13.63;;;17.50;99.90;;;;;;5136694;27;20390;-77
2022/09/13 00:29:15;;;;;;;17.17;13.00;;;17.60;99.90;;;;;;5136963;27;20054;-76
2022/09/13 00:31:40;;;;;;;14.87;13.30;;;17.80;99.90;;;;;;5136678;27;20074;-77
2022/09/13 00:34:06;;;;;;;14.93;13.43;;;17.50;99.90;;;;;;5136256;27;20051;-77
2022/09/13 00:36:31;;;;;;;13.80;12.33;;;17.50;99.90;;;;;;5136575;27;20074;-77
2022/09/13 00:38:59;;;;;;;14.67;13.07;;;17.50;99.90;;;;;;5136499;27;20531;-77
2022/09/13 00:41:25;;;;;;;13.27;11.93;;;17.40;99.90;;;;;;5136428;27;20042;-77
2022/09/13 00:43:53;;;;;;;14.40;12.90;;;17.40;99.90;;;;;;5136614;27;20055;-77
2022/09/13 00:46:25;;;;;;;13.90;12.30;;;17.50;99.90;;;;;;5136305;27;20051;-77
2022/09/13 00:48:54;;;;;;;14.38;11.23;;;17.50;99.90;;;;;;5136568;27;20403;-77
2022/09/13 00:51:19;;;;;;;12.88;11.48;;;17.50;99.90;;;;;;5136125;27;20036;-77
2022/09/13 00:53:51;;;;;;;14.13;11.70;;;17.50;99.90;;;;;;5136169;27;20069;-76
2022/09/13 00:56:57;;;;;;;13.07;11.60;;;17.50;99.90;;;;;;5136404;27;20043;-77
2022/09/13 00:59:30;;;;;;;12.07;10.85;;;17.50;99.90;;;;;;5092996;28;20043;-76
2022/09/13 01:01:57;;;;;;;11.20;10.10;;;17.50;99.90;;;;;;5092946;28;20085;-76
2022/09/13 01:04:27;;;;;;;12.15;10.65;;;17.50;99.90;;;;;;5116076;27;20486;-76
2022/09/13 01:06:58;;;;;;;12.70;10.85;;;17.50;99.90;;;;;;5136444;27;20050;-76
2022/09/13 01:09:24;;;;;;;12.95;11.10;;;17.50;99.90;;;;;;5136189;27;20039;-77
2022/09/13 01:12:20;;;;;;;14.23;12.02;;;17.50;99.90;;;;;;5136143;27;20043;-77
2022/09/13 01:14:47;;;;;;;12.68;11.38;;;17.50;99.90;;;;;;5135747;27;20054;-77
2022/09/13 01:17:13;;;;;;;12.00;10.80;;;17.50;99.90;;;;;;5135703;27;20061;-77
2022/09/13 01:19:38;;;;;;;11.50;10.40;;;17.40;99.90;;;;;;5135354;27;20035;-77
2022/09/13 01:22:49;;;;;;;14.03;11.93;;;17.40;99.90;;;;;;5135748;27;20072;-77
2022/09/13 01:25:27;;;;;;;12.25;11.05;;;17.40;99.90;;;;;;5135593;27;20057;-77
2022/09/13 01:28:01;;;;;;;13.88;11.30;;;17.40;99.90;;;;;;5135519;27;20096;-77
2022/09/13 01:31:01;;;;;;;13.30;11.90;;;17.40;99.90;;;;;;5135425;27;20039;-76
2022/09/13 01:33:40;;;;;;;13.10;11.73;;;17.40;99.90;;;;;;5135116;27;20070;-76
2022/09/13 01:36:17;;;;;;;14.20;12.52;;;17.40;99.90;;;;;;5136038;27;20426;-77
2022/09/13 01:39:10;;;;;;;13.57;11.98;;;17.40;99.90;;;;;;5135870;27;20389;-76
2022/09/13 01:42:27;;;;;;;14.05;11.63;;;17.40;99.90;;;;;;5135139;27;20039;-77
2022/09/13 01:45:30;;;;;;;12.88;11.18;;;17.40;99.90;;;;;;5104055;27;20051;-77
2022/09/13 01:47:59;;;;;;;13.95;12.27;;;17.40;99.90;;;;;;5118812;27;20051;-77
2022/09/13 01:51:03;;;;;;;12.85;11.45;;;17.40;99.90;;;;;;5135068;27;20047;-77
2022/09/13 01:54:00;;;;;;;13.38;11.90;;;17.40;99.90;;;;;;5095306;27;20091;-77
2022/09/13 01:56:32;;;;;;;14.63;12.18;;;17.40;99.90;;;;;;5135071;27;20050;-77
2022/09/13 01:59:10;;;;;;;12.80;11.48;;;17.30;99.90;;;;;;5135470;27;20399;-76
2022/09/13 02:01:47;;;;;;;13.32;11.85;;;17.30;99.90;;;;;;5135020;27;20083;-76
2022/09/13 02:04:26;;;;;;;14.88;12.57;;;17.30;99.90;;;;;;5134801;27;20043;-76
2022/09/13 02:07:28;;;;;;;13.88;12.38;;;17.30;99.90;;;;;;5134887;27;20402;-77
2022/09/13 02:09:59;;;;;;;14.73;12.07;;;17.30;99.90;;;;;;5133478;27;20400;-76
2022/09/13 02:12:30;;;;;;;14.90;13.30;;;17.30;99.90;;;;;;5134870;27;20521;-77
2022/09/13 02:15:13;;;;;;;16.17;13.52;;;17.20;99.90;;;;;;5135012;27;20047;-77
2022/09/13 02:17:49;;;;;;;14.90;13.07;;;17.30;99.90;;;;;;5134769;27;20390;-77
2022/09/13 02:20:27;;;;;;;15.55;13.73;;;17.30;99.90;;;;;;5134760;27;20047;-77
2022/09/13 02:22:56;;;;;;;14.30;12.00;;;17.30;99.90;;;;;;5134713;27;20432;-77
2022/09/13 02:25:25;;;;;;;14.68;12.98;;;17.20;99.90;;;;;;5134845;28;20065;-77
2022/09/13 02:27:57;;;;;;;14.35;12.73;;;17.20;99.90;;;;;;5134597;28;20088;-76
2022/09/13 02:30:24;;;;;;;15.70;13.10;;;17.20;99.90;;;;;;5135264;27;20043;-77
2022/09/13 02:33:00;;;;;;;16.92;14.05;;;17.20;99.90;;;;;;5119946;27;20047;-77
2022/09/13 02:35:32;;;;;;;14.65;13.15;;;17.20;99.90;;;;;;5139161;27;20043;-77
2022/09/13 02:38:07;;;;;;;15.43;13.50;;;17.10;99.90;;;;;;5138639;27;20521;-76
2022/09/13 02:40:45;;;;;;;15.18;13.57;;;17.10;99.90;;;;;;5138819;27;20054;-77
2022/09/13 02:43:52;;;;;;;15.43;13.77;;;17.10;99.90;;;;;;5138659;27;20054;-77
2022/09/13 02:46:39;;;;;;;15.98;14.02;;;17.10;99.90;;;;;;5132489;27;20058;-76
2022/09/13 02:49:30;;;;;;;16.58;14.50;;;17.10;99.90;;;;;;5120759;27;20050;-77
2022/09/13 02:52:11;;;;;;;15.35;13.00;;;17.10;99.90;;;;;;5138604;27;20061;-77
2022/09/13 02:55:13;;;;;;;18.17;13.93;;;17.10;99.90;;;;;;5138828;27;20436;-77
2022/09/13 02:57:47;;;;;;;15.70;13.88;;;17.10;99.90;;;;;;5138061;27;20091;-76
2022/09/13 03:00:13;;;;;;;15.52;13.70;;;17.10;99.90;;;;;;5138505;27;20036;-77
2022/09/13 03:02:42;;;;;;;16.87;14.57;;;17.10;99.90;;;;;;5138718;27;20054;-77
2022/09/13 03:05:08;;;;;;;15.32;12.55;;;17.10;99.90;;;;;;5138445;27;20436;-77
2022/09/13 03:07:34;;;;;;;17.63;14.60;;;17.10;99.90;;;;;;5138243;27;20149;-77
2022/09/13 03:10:05;;;;;;;18.83;15.53;;;17.10;99.90;;;;;;5138163;27;20545;-77
2022/09/13 03:13:01;;;;;;;16.13;14.13;;;17.10;99.90;;;;;;5138253;27;20126;-76
2022/09/13 03:15:26;;;;;;;18.73;15.70;;;17.10;99.90;;;;;;5138160;27;20051;-77
2022/09/13 03:17:56;;;;;;;19.23;17.17;;;17.10;99.90;;;;;;5138192;27;20043;-76
2022/09/13 03:20:48;;;;;;;21.90;16.73;;;17.10;99.90;;;;;;5119952;27;20054;-77
2022/09/13 03:23:46;;;;;;;20.67;16.65;;;17.10;99.90;;;;;;5120401;27;20115;-76
2022/09/13 03:26:40;;;;;;;20.50;16.55;;;17.10;99.90;;;;;;5134389;27;20063;-77
2022/09/13 03:29:30;;;;;;;26.27;17.65;;;17.10;99.90;;;;;;5138313;27;20047;-77
2022/09/13 03:32:14;;;;;;;22.60;18.90;;;17.10;99.90;;;;;;5138200;27;20394;-77
2022/09/13 03:34:55;;;;;;;22.27;17.92;;;17.00;99.90;;;;;;5137809;27;20452;-77
2022/09/13 03:37:37;;;;;;;21.55;18.40;;;17.00;99.90;;;;;;5138380;27;20387;-77
2022/09/13 03:40:07;;;;;;;22.45;18.45;;;17.00;99.90;;;;;;5137982;27;20096;-76
2022/09/13 03:42:57;;;;;;;23.65;19.95;;;17.00;99.90;;;;;;5137428;27;20141;-76
2022/09/13 03:45:27;;;;;;;22.27;18.40;;;17.10;99.90;;;;;;5137533;27;20425;-77
2022/09/13 03:47:54;;;;;;;22.52;18.25;;;17.10;99.90;;;;;;5137523;27;20092;-77
2022/09/13 03:50:21;;;;;;;;;;;17.00;99.90;;;;;;5137826;27;20035;-76
2022/09/13 03:52:50;;;;;;;22.52;18.30;;;17.10;99.90;;;;;;5137439;27;19919;-77
2022/09/13 03:55:21;;;;;;;22.55;18.98;;;17.10;99.90;;;;;;5137366;27;20047;-77
2022/09/13 03:57:46;;;;;;;22.00;19.40;;;17.10;99.90;;;;;;5137278;27;20043;-77
2022/09/13 04:00:14;;;;;;;21.20;18.90;;;17.10;99.90;;;;;;5136991;27;20039;-76
2022/09/13 04:02:40;;;;;;;21.60;18.52;;;17.10;99.90;;;;;;5137211;27;20043;-77
2022/09/13 04:05:06;;;;;;;21.25;18.30;;;17.10;99.90;;;;;;5137125;27;20479;-77
2022/09/13 04:07:32;;;;;;;22.40;19.00;;;17.10;99.90;;;;;;5137414;27;20096;-77
2022/09/13 04:09:58;;;;;;;23.53;20.10;;;17.10;99.90;;;;;;5137091;27;20478;-76
2022/09/13 04:12:23;;;;;;;27.27;20.20;;;17.10;99.90;;;;;;5136945;27;20054;-75
2022/09/13 04:14:49;;;;;;;24.97;20.37;;;17.10;99.90;;;;;;5137003;27;20043;-76
2022/09/13 04:17:15;;;;;;;22.93;20.33;;;17.10;99.90;;;;;;5136934;27;20043;-76
2022/09/13 04:19:41;;;;;;;22.47;19.33;;;17.20;99.90;;;;;;5136935;27;20471;-76
2022/09/13 04:22:07;;;;;;;22.30;19.50;;;17.20;99.90;;;;;;5136835;27;20130;-75
2022/09/13 04:24:32;;;;;;;23.67;19.42;;;17.10;99.90;;;;;;5136585;27;20276;-76
2022/09/13 04:26:59;;;;;;;21.73;19.43;;;17.20;99.90;;;;;;5136749;27;20050;-76
2022/09/13 04:29:25;;;;;;;;;;;17.20;99.90;;;;;;5137497;27;20051;-76
2022/09/13 04:31:53;;;;;;;21.55;17.92;;;17.20;99.90;;;;;;5118750;27;20007;-76
2022/09/13 04:34:21;;;;;;;21.30;19.02;;;17.20;99.90;;;;;;5136659;27;20041;-77
2022/09/13 04:36:47;;;;;;;23.52;19.83;;;17.20;99.90;;;;;;5136516;27;20051;-76
2022/09/13 04:39:15;;;;;;;22.67;18.83;;;17.20;99.90;;;;;;5136243;27;20054;-77
2022/09/13 04:41:44;;;;;;;25.92;20.20;;;17.20;99.90;;;;;;5136150;27;20043;-76
2022/09/13 04:44:10;;;;;;;21.17;18.98;;;17.20;99.90;;;;;;5137098;27;20214;-76
2022/09/13 04:46:36;;;;;;;26.77;20.20;;;17.20;99.90;;;;;;5136891;27;20085;-77
2022/09/13 04:49:02;;;;;;;27.13;21.50;;;17.20;99.90;;;;;;5118394;27;20046;-77
2022/09/13 04:51:28;;;;;;;21.42;19.13;;;17.20;99.90;;;;;;5136244;27;20515;-77
2022/09/13 04:53:55;;;;;;;25.77;19.80;;;17.10;99.90;;;;;;5135667;27;20079;-76
2022/09/13 04:56:22;;;;;;;23.20;20.00;;;17.20;99.90;;;;;;5136344;27;20051;-77
2022/09/13 04:58:51;;;;;;;;;;;17.30;99.90;;;;;;5137060;27;20039;-76
2022/09/13 05:01:17;;;;;;;23.05;18.88;;;17.20;99.90;;;;;;5135831;27;19924;-76
2022/09/13 05:03:43;;;;;;;21.40;18.40;;;17.10;99.90;;;;;;5135821;27;20478;-76
2022/09/13 05:06:11;;;;;;;21.07;17.43;;;17.20;99.90;;;;;;5117989;27;20043;-76
2022/09/13 05:08:37;;;;;;;24.60;19.90;;;17.20;99.90;;;;;;5135654;27;20043;-76
2022/09/13 05:11:04;;;;;;;25.55;20.45;;;17.30;99.90;;;;;;5135805;27;20047;-77
2022/09/13 05:13:30;;;;;;;22.98;19.50;;;17.20;99.90;;;;;;5136484;27;20046;-76
2022/09/13 05:16:01;;;;;;;24.88;22.17;;;17.30;99.90;;;;;;5135769;27;20051;-76
2022/09/13 05:18:27;;;;;;;23.92;20.38;;;17.20;99.90;;;;;;5135695;27;20053;-76
2022/09/13 05:20:57;;;;;;;25.70;21.40;;;17.20;99.90;;;;;;5135574;27;20035;-76
2022/09/13 05:23:23;;;;;;;22.95;20.15;;;17.20;99.90;;;;;;5117204;27;20043;-76
2022/09/13 05:25:57;;;;;;;24.63;21.10;;;17.30;99.90;;;;;;5136061;27;20043;-76
2022/09/13 05:28:23;;;;;;;27.65;20.55;;;17.30;99.90;;;;;;5135559;27;20470;-76
2022/09/13 05:31:05;;;;;;;26.38;19.75;;;17.30;99.90;;;;;;5135490;27;20039;-76
2022/09/13 05:33:34;;;;;;;25.30;21.75;;;17.30;99.90;;;;;;5135560;27;20043;-77
2022/09/13 05:36:00;;;;;;;22.63;20.20;;;17.30;99.90;;;;;;5135179;27;20126;-77
2022/09/13 05:38:26;;;;;;;21.70;18.83;;;17.30;99.90;;;;;;5135079;27;20036;-76
2022/09/13 05:41:00;;;;;;;24.30;19.73;;;17.30;99.90;;;;;;5135245;27;20379;-76
2022/09/13 05:43:27;;;;;;;24.00;20.25;;;17.30;99.90;;;;;;5135108;27;20133;-76
2022/09/13 05:46:02;;;;;;;25.20;20.90;;;17.30;99.90;;;;;;5135385;27;20505;-76
2022/09/13 05:48:28;;;;;;;28.33;20.92;;;17.30;99.90;;;;;;5135095;27;20066;-76
2022/09/13 05:50:54;;;;;;;27.25;21.50;;;17.30;99.90;;;;;;5135000;27;20039;-76
2022/09/13 05:53:20;;;;;;;27.03;21.63;;;17.30;99.90;;;;;;5135063;27;20039;-76
2022/09/13 05:55:45;;;;;;;26.10;20.80;;;17.40;99.90;;;;;;5135326;27;20043;-76
2022/09/13 05:58:11;;;;;;;26.57;21.13;;;17.30;99.90;;;;;;5117038;27;20074;-77
2022/09/13 06:00:36;;;;;;;24.07;19.73;;;17.40;99.90;;;;;;5135028;27;20035;-78
2022/09/13 06:03:02;;;;;;;22.60;20.20;;;17.40;99.90;;;;;;5134980;27;20054;-78
2022/09/13 06:05:27;;;;;;;25.93;20.43;;;17.40;99.90;;;;;;5134752;27;20050;-77
2022/09/13 06:07:53;;;;;;;25.97;20.10;;;17.40;99.90;;;;;;5134880;27;20111;-77
2022/09/13 06:10:19;;;;;;;22.90;19.50;;;17.50;99.90;;;;;;5134784;27;20043;-77
2022/09/13 06:12:45;;;;;;;27.07;20.67;;;17.50;99.90;;;;;;5135079;27;20086;-77
2022/09/13 06:15:10;;;;;;;22.83;19.67;;;17.50;99.90;;;;;;5134797;27;20047;-78
2022/09/13 06:17:36;;;;;;;27.17;19.63;;;17.50;99.90;;;;;;5134846;27;20039;-78
2022/09/13 06:20:02;;;;;;;24.87;19.63;;;17.50;99.90;;;;;;5116336;27;20043;-76
2022/09/13 06:22:32;;;;;;;26.35;19.60;;;17.50;99.90;;;;;;5134698;27;20047;-77
2022/09/13 06:24:58;;;;;;;23.48;19.02;;;17.50;99.90;;;;;;5134646;27;20087;-77
2022/09/13 06:27:23;;;;;;;20.77;17.52;;;17.70;99.90;;;;;;5134622;28;20050;-77
2022/09/13 06:29:49;;;;;;;24.87;19.57;;;17.60;99.90;;;;;;5116432;28;20051;-78
2022/09/13 06:32:15;;;;;;;22.60;18.73;;;17.60;99.90;;;;;;5134637;28;20079;-77
2022/09/13 06:34:41;;;;;;;24.83;19.87;;;17.60;99.90;;;;;;5134515;28;20476;-78
2022/09/13 06:37:06;;;;;;;21.00;17.67;;;17.70;99.90;;;;;;5135044;28;20439;-76
2022/09/13 06:39:33;;;;;;;25.50;18.83;;;17.70;99.90;;;;;;5134587;28;20050;-77
2022/09/13 06:41:59;;;;;;;21.35;17.58;;;17.80;99.90;;;;;;5134714;28;20380;-77
2022/09/13 06:44:24;;;;;;;15.18;13.15;;;17.90;99.90;;;;;;5134789;28;20094;-77
2022/09/13 06:46:50;;;;;;;17.73;15.00;;;17.80;99.90;;;;;;5116565;28;20097;-78
2022/09/13 06:49:15;;;;;;;17.23;15.30;;;17.80;99.90;;;;;;5134130;28;20086;-77
2022/09/13 06:51:41;;;;;;;19.43;15.47;;;17.80;99.90;;;;;;5134428;28;20497;-78
2022/09/13 06:54:07;;;;;;;19.20;14.77;;;17.80;99.90;;;;;;5134463;28;20078;-78
2022/09/13 06:56:36;;;;;;;18.53;12.90;;;17.80;99.90;;;;;;5134741;28;20054;-76
2022/09/13 06:59:04;;;;;;;15.02;12.55;;;17.80;99.90;;;;;;5134411;28;20497;-76
2022/09/13 07:01:33;;;;;;;18.58;13.75;;;17.80;99.90;;;;;;5134350;28;20126;-77
2022/09/13 07:04:01;;;;;;;15.02;11.57;;;17.80;99.90;;;;;;5134270;28;20126;-76
2022/09/13 07:06:30;;;;;;;14.90;10.85;;;17.90;99.90;;;;;;5099435;28;20051;-77
2022/09/13 07:08:57;;;;;;;9.88;7.85;;;17.80;99.90;;;;;;5134160;28;20093;-76
2022/09/13 07:11:24;;;;;;;10.98;7.53;;;17.80;99.90;;;;;;5116148;28;20031;-77
2022/09/13 07:13:54;;;;;;;10.32;7.20;;;17.80;99.90;;;;;;5134239;28;20039;-77
2022/09/13 07:16:22;;;;;;;11.25;7.38;;;17.80;99.90;;;;;;5134176;28;20039;-78
2022/09/13 07:18:52;;;;;;;9.10;6.80;;;17.80;99.90;;;;;;5136790;27;20429;-76
2022/09/13 07:21:18;;;;;;;8.18;5.18;;;17.80;99.90;;;;;;5138580;27;20043;-77
2022/09/13 07:23:43;;;;;;;9.13;5.20;;;17.70;99.90;;;;;;5138173;27;20088;-77
2022/09/13 07:26:09;;;;;;;6.37;5.17;;;17.80;99.90;;;;;;5119866;27;20130;-77
2022/09/13 07:28:40;;;;;;;8.30;4.27;;;17.80;99.90;;;;;;5119821;27;20047;-76
2022/09/13 07:31:13;;;;;;;8.57;4.72;;;17.80;99.90;;;;;;5137729;27;20098;-77
2022/09/13 07:33:40;;;;;;;8.13;4.22;;;17.80;99.90;;;;;;5137725;27;20039;-78
2022/09/13 07:36:07;;;;;;;5.25;3.65;;;17.90;99.90;;;;;;5137768;27;20043;-77
2022/09/13 07:38:37;;;;;;;5.53;3.83;;;17.90;99.90;;;;;;5137582;27;20487;-78
2022/09/13 07:41:05;;;;;;;5.82;4.05;;;18.00;99.90;;;;;;5137702;27;20035;-76
2022/09/13 07:43:35;;;;;;;6.43;4.30;;;18.00;99.90;;;;;;5138166;27;20059;-77
2022/09/13 07:46:06;;;;;;;5.65;3.40;;;18.10;99.90;;;;;;5137836;27;20055;-78
2022/09/13 07:48:34;;;;;;;4.15;2.90;;;18.10;99.90;;;;;;5137594;27;20177;-78
2022/09/13 07:51:09;;;;;;;4.45;2.38;;;18.20;99.90;;;;;;5137401;27;20047;-77
2022/09/13 07:53:36;;;;;;;5.88;3.20;;;18.00;99.90;;;;;;5137957;27;20050;-77
2022/09/13 07:56:12;;;;;;;5.20;2.80;;;18.00;99.90;;;;;;5137348;27;20043;-77
2022/09/13 07:58:39;;;;;;;4.72;2.20;;;18.00;99.90;;;;;;5137778;27;20078;-76
2022/09/13 08:01:28;;;;;;;5.78;2.88;;;18.00;99.90;;;;;;5137265;27;20039;-77
2022/09/13 08:03:57;;;;;;;3.97;2.47;;;18.10;99.90;;;;;;5136806;27;20055;-77
2022/09/13 08:06:24;;;;;;;6.10;2.42;;;18.20;99.90;;;;;;5119091;27;20046;-77
2022/09/13 08:08:49;;;;;;;5.93;2.30;;;18.30;99.90;;;;;;5136687;27;20595;-76
2022/09/13 08:11:18;;;;;;;5.13;2.03;;;18.40;99.90;;;;;;5137080;27;20382;-77
2022/09/13 08:13:45;;;;;;;6.88;2.65;;;18.40;99.90;;;;;;5136802;27;20387;-78
2022/09/13 08:16:11;;;;;;;4.80;1.88;;;18.40;99.90;;;;;;5136974;27;20043;-77
2022/09/13 08:18:37;;;;;;;4.90;1.93;;;18.50;99.90;;;;;;5136958;27;20104;-78
2022/09/13 08:21:02;;;;;;;5.20;2.07;;;18.50;99.90;;;;;;5137015;27;20122;-78
2022/09/13 08:23:28;;;;;;;4.87;2.03;;;18.60;99.90;;;;;;5137118;27;20057;-78
2022/09/13 08:26:00;;;;;;;5.80;1.87;;;18.80;99.90;;;;;;5137045;27;20055;-78
2022/09/13 08:28:25;;;;;;;4.35;1.70;;;18.70;99.90;;;;;;5136747;27;20068;-77
2022/09/13 08:30:51;;;;;;;6.03;1.70;;;18.70;99.90;;;;;;5135857;27;20039;-78
2022/09/13 08:33:16;;;;;;;5.60;1.73;;;18.70;99.90;;;;;;5136650;27;20376;-78
2022/09/13 08:35:54;;;;;;;6.13;1.60;;;18.70;99.90;;;;;;5136795;27;20039;-78
2022/09/13 08:38:19;;;;;;;5.55;2.13;;;18.80;99.90;;;;;;5137103;27;20087;-78
2022/09/13 08:40:53;;;;;;;6.73;1.40;;;19.00;99.90;;;;;;5136616;27;20085;-78
2022/09/13 08:43:49;;;;;;;4.25;1.50;;;19.10;99.90;;;;;;5136586;27;20062;-77
2022/09/13 08:46:27;;;;;;;7.55;1.35;;;19.20;99.90;;;;;;5136376;27;20058;-78
2022/09/13 08:48:58;;;;;;;3.80;1.00;;;19.30;99.90;;;;;;5136449;27;20125;-78
2022/09/13 08:51:31;;;;;;;5.22;1.60;;;19.40;99.90;;;;;;5136351;27;20039;-77
2022/09/13 08:53:58;;;;;;;4.97;1.27;;;19.60;99.90;;;;;;5136322;27;20096;-77
2022/09/13 08:56:43;;;;;;;3.17;1.13;;;19.50;99.90;;;;;;5136234;27;20055;-77
2022/09/13 08:59:32;;;;;;;3.60;1.10;;;19.60;99.90;;;;;;5136143;27;20092;-77
2022/09/13 09:02:35;;;;;;;4.80;1.10;;;19.60;99.90;;;;;;5118462;27;20474;-77
2022/09/13 09:05:09;;;;;;;6.07;1.25;;;19.60;99.90;;;;;;5117616;27;20623;-77
2022/09/13 09:07:42;;;;;;;5.97;1.10;;;19.60;99.90;;;;;;5136694;27;20046;-77
2022/09/13 09:10:29;;;;;;;3.70;1.45;;;19.60;99.90;;;;;;5136280;27;20047;-78
2022/09/13 09:13:12;;;;;;;6.25;1.35;;;19.50;99.90;;;;;;5135897;27;20050;-77
2022/09/13 09:15:53;;;;;;;3.17;1.10;;;19.50;99.90;;;;;;5135767;27;20046;-77
2022/09/13 09:18:28;;;;;;;3.70;1.10;;;19.40;99.90;;;;;;5135775;27;20483;-77
2022/09/13 09:20:56;;;;;;;3.80;1.02;;;19.50;99.90;;;;;;5135982;27;20478;-77
2022/09/13 09:24:01;;;;;;;3.83;1.05;;;19.70;99.90;;;;;;5135717;27;20050;-77
2022/09/13 09:26:29;;;;;;;6.20;1.20;;;19.90;99.90;;;;;;5032787;28;20053;-76
2022/09/13 09:29:04;;;;;;;2.55;0.90;;;20.00;99.90;;;;;;5032101;28;20057;-78
2022/09/13 09:31:52;;;;;;;6.10;0.80;;;20.20;99.90;;;;;;5089242;27;20054;-78
2022/09/13 09:34:24;;;;;;;2.47;1.00;;;20.10;99.90;;;;;;5135562;27;20477;-76
2022/09/13 09:36:58;;;;;;;2.55;1.00;;;20.00;99.90;;;;;;5117485;27;20043;-76
2022/09/13 09:39:28;;;;;;;3.50;1.05;;;19.90;99.90;;;;;;5135403;27;20047;-77
2022/09/13 09:41:56;;;;;;;2.83;1.30;;;19.90;99.90;;;;;;5134954;27;20058;-78
2022/09/13 09:44:33;;;;;;;4.50;0.95;;;19.90;99.90;;;;;;5135342;27;20516;-77
2022/09/13 09:47:03;;;;;;;3.53;0.82;;;19.90;99.90;;;;;;5135326;27;20039;-77
2022/09/13 09:52:50;;;;;;;2.70;0.80;;;19.90;99.90;;;;;;5135385;27;20137;-77
2022/09/13 09:55:40;;;;;;;2.70;0.80;;;20.10;99.90;;;;;;5135165;27;20047;-77
2022/09/13 09:58:10;;;;;;;2.63;0.90;;;20.30;99.90;;;;;;5135064;27;20043;-76
2022/09/13 10:00:49;;;;;;;2.88;1.00;;;20.50;99.90;;;;;;5134973;27;20043;-77
2022/09/13 10:03:30;;;;;;;2.35;0.80;;;20.70;99.90;;;;;;5135013;27;20042;-77
2022/09/13 10:06:10;;;;;;;2.58;0.73;;;21.00;99.90;;;;;;5135443;27;20043;-77
2022/09/13 10:08:38;;;;;;;4.70;0.90;;;21.00;99.90;;;;;;5134691;27;20514;-77
2022/09/13 10:11:05;;;;;;;3.25;0.80;;;20.90;99.90;;;;;;5134808;27;20046;-77
2022/09/13 10:13:32;;;;;;;2.08;0.80;;;20.70;99.90;;;;;;5134814;27;20062;-77
2022/09/13 10:16:00;;;;;;;2.47;0.60;;;20.70;99.90;;;;;;5134580;27;20551;-77
2022/09/13 10:18:36;;;;;;;5.80;0.85;;;20.80;99.90;;;;;;5134480;27;20083;-77
2022/09/13 10:21:16;;;;;;;2.78;0.88;;;20.90;99.90;;;;;;5134829;27;20043;-77
2022/09/13 10:23:43;;;;;;;3.90;0.90;;;20.90;99.90;;;;;;5134560;27;20054;-76
2022/09/13 10:26:16;;;;;;;5.68;0.90;;;20.90;99.90;;;;;;5134414;27;20498;-77
2022/09/13 10:28:48;;;;;;;3.70;0.75;;;20.90;99.90;;;;;;5116842;28;20426;-77
2022/09/13 10:31:16;;;;;;;4.57;0.80;;;20.70;99.90;;;;;;5135357;28;20200;-77
2022/09/13 10:34:23;;;;;;;1.95;0.65;;;20.70;99.90;;;;;;5134708;28;20054;-76
2022/09/13 10:37:01;;;;;;;1.40;0.60;;;20.80;99.90;;;;;;5130820;28;20544;-76
2022/09/13 10:39:30;;;;;;;3.25;0.70;;;20.60;99.90;;;;;;5135133;28;20130;-76
2022/09/13 10:42:05;;;;;;;2.40;0.70;;;20.50;99.90;;;;;;5115995;28;20047;-77
2022/09/13 10:44:31;;;;;;;4.07;0.90;;;20.50;99.90;;;;;;5134557;28;20493;-77
2022/09/13 10:47:01;;;;;;;2.13;0.70;;;20.40;99.90;;;;;;5134576;28;20059;-76
2022/09/13 10:49:44;;;;;;;3.72;0.82;;;20.50;99.90;;;;;;5134488;28;20473;-77
2022/09/13 10:52:25;;;;;;;2.85;0.70;;;20.50;99.90;;;;;;5117340;27;20047;-77
2022/09/13 10:54:52;;;;;;;3.65;0.73;;;20.80;99.90;;;;;;5138821;27;20134;-77
2022/09/13 10:57:34;;;;;;;2.53;0.95;;;21.00;99.90;;;;;;5138548;27;20051;-76
2022/09/13 11:00:01;;;;;;;3.55;0.80;;;21.30;99.90;;;;;;5138308;27;20547;-76
2022/09/13 11:02:52;;;;;;;6.57;1.15;;;21.60;99.90;;;;;;5138467;27;20096;-77
2022/09/13 11:06:01;;;;;;;2.97;0.70;;;21.80;99.90;;;;;;5120009;27;20549;-77
2022/09/13 11:08:46;;;;;;;4.85;0.75;;;22.10;99.90;;;;;;5125967;27;20134;-76
2022/09/13 11:11:38;;;;;;;2.75;0.73;;;22.00;99.90;;;;;;5138210;27;20031;-77
2022/09/13 11:14:17;;;;;;;3.15;0.70;;;21.80;99.90;;;;;;5138193;27;20452;-77
2022/09/13 11:16:57;;;;;;;2.10;0.63;;;21.60;99.90;;;;;;5119932;27;20386;-76
2022/09/13 11:20:05;;;;;;;4.05;0.70;;;21.40;99.90;;;;;;5138500;27;20043;-78
2022/09/13 11:23:04;;;;;;;3.42;0.80;;;21.40;99.90;;;;;;5125698;27;20059;-77
2022/09/13 11:25:39;;;;;;;2.38;0.60;;;21.50;99.90;;;;;;5138363;27;20039;-77
2022/09/13 11:28:33;;;;;;;3.78;1.13;;;21.60;99.90;;;;;;5137837;27;20634;-77
2022/09/13 11:31:18;;;;;;;1.88;0.60;;;21.80;99.90;;;;;;5137430;27;20443;-76
2022/09/13 11:34:06;;;;;;;2.58;0.57;;;21.90;99.90;;;;;;5138305;27;20049;-76
2022/09/13 11:36:45;;;;;;;5.63;0.95;;;21.90;99.90;;;;;;5138042;27;20043;-76
2022/09/13 11:39:43;;;;;;;2.05;0.70;;;21.70;99.90;;;;;;5137838;27;20394;-76
2022/09/13 11:42:40;;;;;;;2.40;0.80;;;21.50;99.90;;;;;;5130265;27;20108;-76
2022/09/13 11:45:21;;;;;;;5.13;1.10;;;21.50;99.90;;;;;;5137627;27;20285;-76
2022/09/13 11:48:00;;;;;;;3.78;0.80;;;21.70;99.90;;;;;;5137771;27;20167;-75
2022/09/13 11:50:54;;;;;;;3.13;0.82;;;21.80;99.90;;;;;;5137354;27;20035;-76
2022/09/13 11:53:53;;;;;;;3.85;0.90;;;21.90;99.90;;;;;;5137486;27;20050;-76
2022/09/13 11:56:33;;;;;;;3.80;0.80;;;22.00;99.90;;;;;;5137122;27;20479;-76
2022/09/13 11:59:33;;;;;;;3.08;0.80;;;22.10;99.90;;;;;;5137384;27;20039;-76
2022/09/13 12:02:04;;;;;;;2.42;0.65;;;22.10;99.90;;;;;;5137291;27;20054;-76
2022/09/13 12:04:36;;;;;;;2.90;0.80;;;22.10;99.90;;;;;;5137032;27;20035;-75
2022/09/13 12:07:09;;;;;;;3.47;0.90;;;22.20;99.90;;;;;;5137137;27;20047;-78
2022/09/13 12:09:39;;;;;;;1.73;0.63;;;22.20;99.90;;;;;;5137337;27;20512;-77
2022/09/13 12:12:09;;;;;;;2.15;0.60;;;22.20;99.90;;;;;;5137108;27;20053;-76
2022/09/13 12:14:59;;;;;;;3.88;0.70;;;22.20;99.90;;;;;;5137334;27;20043;-75
2022/09/13 12:17:27;;;;;;;4.32;0.90;;;22.20;99.90;;;;;;5136964;27;20049;-76
2022/09/13 12:19:56;;;;;;;4.15;0.70;;;22.30;99.90;;;;;;5136924;27;20043;-77
2022/09/13 12:22:23;;;;;;;3.58;0.70;;;22.20;99.90;;;;;;5136899;27;20084;-77
2022/09/13 12:24:56;;;;;;;2.70;0.82;;;22.30;99.90;;;;;;5136843;27;20474;-77
2022/09/13 12:27:47;;;;;;;4.30;0.80;;;22.40;99.90;;;;;;5118513;27;20125;-77
2022/09/13 12:30:17;;;;;;;5.03;1.00;;;22.40;99.90;;;;;;5136698;27;20043;-76
2022/09/13 12:32:45;;;;;;;2.53;0.70;;;22.40;99.90;;;;;;5118606;27;20064;-77
2022/09/13 12:35:25;;;;;;;2.70;0.80;;;22.20;99.90;;;;;;5136604;27;20043;-77
2022/09/13 12:38:17;;;;;;;3.50;0.85;;;22.30;99.90;;;;;;5136547;27;20035;-76
2022/09/13 12:41:10;;;;;;;3.42;0.70;;;22.40;99.90;;;;;;5138010;27;20387;-77
2022/09/13 12:43:50;;;;;;;4.00;0.93;;;22.50;99.90;;;;;;5136687;27;20055;-77
2022/09/13 12:46:44;;;;;;;2.83;0.73;;;22.50;99.90;;;;;;5136479;27;20082;-76
2022/09/13 12:49:39;;;;;;;2.65;0.80;;;22.60;99.90;;;;;;5136454;27;20046;-78
2022/09/13 12:52:30;;;;;;;2.15;0.70;;;22.70;99.90;;;;;;5136445;27;20585;-77
2022/09/13 12:55:17;;;;;;;4.35;0.70;;;22.80;99.90;;;;;;5136253;27;20051;-77
2022/09/13 12:58:13;;;;;;;2.97;0.82;;;22.90;99.90;;;;;;5136191;27;20049;-77
2022/09/13 13:01:08;;;;;;;2.85;0.90;;;22.90;99.90;;;;;;5136364;27;20043;-77
2022/09/13 13:03:48;;;;;;;3.20;0.80;;;22.80;99.90;;;;;;5136081;27;20046;-76
2022/09/13 13:06:46;;;;;;;2.38;0.80;;;22.70;99.90;;;;;;5136228;27;20514;-77
2022/09/13 13:09:27;;;;;;;3.33;0.90;;;22.70;99.90;;;;;;5136053;27;20039;-77
2022/09/13 13:11:53;;;;;;;5.45;1.10;;;22.80;99.90;;;;;;5135761;27;20050;-77
2022/09/13 13:14:28;;;;;;;3.92;0.90;;;22.90;99.90;;;;;;5135902;27;20043;-76